sensor_id;sensor_type;location;lat;lon;timestamp;temperature;humidity
69634;DHT22;56860;51.144;16.954;2023-12-20T00:00:59;5.2;57.9
69634;DHT22;56860;51.144;16.954;2023-12-20T00:01:59;5.2;57.9
69634;DHT22;56860;51.144;16.954;2023-12-20T00:02:59;5.2;57.9
69634;DHT22;56860;51.144;16.954;2023-12-20T00:03:59;5.1;57.9
69634;DHT22;56860;51.144;16.954;2023-12-20T00:04:59;5.1;58.1
69634;DHT22;56860;51.144;16.954;2023-12-20T00:05:59;5.2;58.0
69634;DHT22;56860;51.144;16.954;2023-12-20T00:06:59;5.2;58.0
69634;DHT22;56860;51.144;16.954;2023-12-20T00:07:59;5.2;57.9
69634;DHT22;56860;51.144;16.954;2023-12-20T00:08:59;5.2;57.9
69634;DHT22;56860;51.144;16.954;2023-12-20T00:09:59;5.2;57.8
69634;DHT22;56860;51.144;16.954;2023-12-20T00:10:59;5.1;57.6
69634;DHT22;56860;51.144;16.954;2023-12-20T00:11:59;5.1;57.7
69634;DHT22;56860;51.144;16.954;2023-12-20T00:12:59;5.1;57.8
69634;DHT22;56860;51.144;16.954;2023-12-20T00:13:59;5.2;57.9
69634;DHT22;56860;51.144;16.954;2023-12-20T00:14:59;5.3;57.7
69634;DHT22;56860;51.144;16.954;2023-12-20T00:15:59;5.3;57.0
69634;DHT22;56860;51.144;16.954;2023-12-20T00:16:59;5.3;57.0
69634;DHT22;56860;51.144;16.954;2023-12-20T00:17:59;5.3;57.1
69634;DHT22;56860;51.144;16.954;2023-12-20T00:18:59;5.2;57.0
69634;DHT22;56860;51.144;16.954;2023-12-20T00:19:59;5.2;56.7
69634;DHT22;56860;51.144;16.954;2023-12-20T00:20:59;5.1;57.3
69634;DHT22;56860;51.144;16.954;2023-12-20T00:21:59;5.0;57.7
69634;DHT22;56860;51.144;16.954;2023-12-20T00:22:59;5.0;57.9
69634;DHT22;56860;51.144;16.954;2023-12-20T00:23:59;5.0;58.1
69634;DHT22;56860;51.144;16.954;2023-12-20T00:24:59;5.0;58.4
69634;DHT22;56860;51.144;16.954;2023-12-20T00:25:59;5.0;58.4
69634;DHT22;56860;51.144;16.954;2023-12-20T00:26:59;5.0;58.4
69634;DHT22;56860;51.144;16.954;2023-12-20T00:27:59;5.0;58.2
69634;DHT22;56860;51.144;16.954;2023-12-20T00:28:59;5.0;58.4
69634;DHT22;56860;51.144;16.954;2023-12-20T00:29:59;5.0;58.5
69634;DHT22;56860;51.144;16.954;2023-12-20T00:30:59;4.9;58.5
69634;DHT22;56860;51.144;16.954;2023-12-20T00:31:59;4.9;58.7
69634;DHT22;56860;51.144;16.954;2023-12-20T00:32:59;4.8;58.9
69634;DHT22;56860;51.144;16.954;2023-12-20T00:33:59;4.8;59.2
69634;DHT22;56860;51.144;16.954;2023-12-20T00:34:59;4.8;59.3
69634;DHT22;56860;51.144;16.954;2023-12-20T00:35:59;4.8;59.4
69634;DHT22;56860;51.144;16.954;2023-12-20T00:36:59;unavailable;unavailable
69634;DHT22;56860;51.144;16.954;2023-12-20T00:37:59;4.9;59.0
69634;DHT22;56860;51.144;16.954;2023-12-20T00:38:59;4.9;58.9
69634;DHT22;56860;51.144;16.954;2023-12-20T00:40:00;5.0;58.9
69634;DHT22;56860;51.144;16.954;2023-12-20T00:40:59;4.9;58.9
69634;DHT22;56860;51.144;16.954;2023-12-20T00:41:59;5.0;58.9
69634;DHT22;56860;51.144;16.954;2023-12-20T00:42:59;5.0;58.8
69634;DHT22;56860;51.144;16.954;2023-12-20T00:43:59;5.0;58.7
69634;DHT22;56860;51.144;16.954;2023-12-20T00:44:59;5.0;58.6
69634;DHT22;56860;51.144;16.954;2023-12-20T00:45:59;5.0;58.9
69634;DHT22;56860;51.144;16.954;2023-12-20T00:46:59;5.0;58.9
69634;DHT22;56860;51.144;16.954;2023-12-20T00:47:59;5.0;58.9
69634;DHT22;56860;51.144;16.954;2023-12-20T00:48:59;5.0;58.8
69634;DHT22;56860;51.144;16.954;2023-12-20T00:49:59;5.0;58.8
69634;DHT22;56860;51.144;16.954;2023-12-20T00:50:59;5.0;58.8
69634;DHT22;56860;51.144;16.954;2023-12-20T00:51:59;5.0;58.8
69634;DHT22;56860;51.144;16.954;2023-12-20T00:52:59;5.0;59.0
69634;DHT22;56860;51.144;16.954;2023-12-20T00:53:59;4.9;58.6
69634;DHT22;56860;51.144;16.954;2023-12-20T00:55:00;4.9;59.2
69634;DHT22;56860;51.144;16.954;2023-12-20T00:56:00;4.9;59.5
69634;DHT22;56860;51.144;16.954;2023-12-20T00:57:00;4.9;59.6
69634;DHT22;56860;51.144;16.954;2023-12-20T00:58:00;4.8;59.6
69634;DHT22;56860;51.144;16.954;2023-12-20T00:59:00;4.8;59.9
69634;DHT22;56860;51.144;16.954;2023-12-20T01:00:00;4.9;60.1
69634;DHT22;56860;51.144;16.954;2023-12-20T01:01:00;4.9;60.0
69634;DHT22;56860;51.144;16.954;2023-12-20T01:02:00;5.0;59.8
69634;DHT22;56860;51.144;16.954;2023-12-20T01:03:00;5.0;59.6
69634;DHT22;56860;51.144;16.954;2023-12-20T01:03:59;5.0;59.8
69634;DHT22;56860;51.144;16.954;2023-12-20T01:05:00;5.0;59.9
69634;DHT22;56860;51.144;16.954;2023-12-20T01:06:00;5.0;59.8
69634;DHT22;56860;51.144;16.954;2023-12-20T01:06:59;5.0;59.8
69634;DHT22;56860;51.144;16.954;2023-12-20T01:07:59;4.9;60.0
69634;DHT22;56860;51.144;16.954;2023-12-20T01:09:00;4.9;60.1
69634;DHT22;56860;51.144;16.954;2023-12-20T01:09:59;4.8;60.2
69634;DHT22;56860;51.144;16.954;2023-12-20T01:11:00;4.8;60.5
69634;DHT22;56860;51.144;16.954;2023-12-20T01:11:59;4.8;60.5
69634;DHT22;56860;51.144;16.954;2023-12-20T01:12:59;4.8;60.7
69634;DHT22;56860;51.144;16.954;2023-12-20T01:13:59;4.7;61.1
69634;DHT22;56860;51.144;16.954;2023-12-20T01:15:00;4.7;61.2
69634;DHT22;56860;51.144;16.954;2023-12-20T01:15:59;4.7;61.3
69634;DHT22;56860;51.144;16.954;2023-12-20T01:16:59;4.8;61.3
69634;DHT22;56860;51.144;16.954;2023-12-20T01:17:59;4.8;61.4
69634;DHT22;56860;51.144;16.954;2023-12-20T01:18:59;4.8;61.5
69634;DHT22;56860;51.144;16.954;2023-12-20T01:19:59;4.8;61.6
69634;DHT22;56860;51.144;16.954;2023-12-20T01:21:01;4.9;61.5
69634;DHT22;56860;51.144;16.954;2023-12-20T01:21:59;4.9;61.4
69634;DHT22;56860;51.144;16.954;2023-12-20T01:22:59;4.9;61.4
69634;DHT22;56860;51.144;16.954;2023-12-20T01:23:59;4.9;61.2
69634;DHT22;56860;51.144;16.954;2023-12-20T01:24:59;4.8;61.3
69634;DHT22;56860;51.144;16.954;2023-12-20T01:25:59;4.9;61.4
69634;DHT22;56860;51.144;16.954;2023-12-20T01:27:00;4.8;61.4
69634;DHT22;56860;51.144;16.954;2023-12-20T01:27:59;4.9;61.4
69634;DHT22;56860;51.144;16.954;2023-12-20T01:28:59;5.0;61.5
69634;DHT22;56860;51.144;16.954;2023-12-20T01:29:59;5.0;61.5
69634;DHT22;56860;51.144;16.954;2023-12-20T01:30:59;5.0;61.3
69634;DHT22;56860;51.144;16.954;2023-12-20T01:32:00;5.0;61.2
69634;DHT22;56860;51.144;16.954;2023-12-20T01:33:00;5.0;61.4
69634;DHT22;56860;51.144;16.954;2023-12-20T01:33:59;5.0;61.5
69634;DHT22;56860;51.144;16.954;2023-12-20T01:35:00;4.9;61.4
69634;DHT22;56860;51.144;16.954;2023-12-20T01:36:00;4.9;61.4
69634;DHT22;56860;51.144;16.954;2023-12-20T01:37:00;4.9;61.4
69634;DHT22;56860;51.144;16.954;2023-12-20T01:38:00;4.9;61.4
69634;DHT22;56860;51.144;16.954;2023-12-20T01:39:00;5.0;61.5
69634;DHT22;56860;51.144;16.954;2023-12-20T01:40:00;5.1;61.5
69634;DHT22;56860;51.144;16.954;2023-12-20T01:41:00;5.2;61.2
69634;DHT22;56860;51.144;16.954;2023-12-20T01:42:01;5.2;61.0
69634;DHT22;56860;51.144;16.954;2023-12-20T01:43:00;5.4;60.6
69634;DHT22;56860;51.144;16.954;2023-12-20T01:44:00;5.5;60.2
69634;DHT22;56860;51.144;16.954;2023-12-20T01:45:00;5.5;59.8
69634;DHT22;56860;51.144;16.954;2023-12-20T01:46:00;5.5;59.2
69634;DHT22;56860;51.144;16.954;2023-12-20T01:47:00;5.5;59.4
69634;DHT22;56860;51.144;16.954;2023-12-20T01:48:00;5.5;59.5
69634;DHT22;56860;51.144;16.954;2023-12-20T01:49:00;5.4;59.6
69634;DHT22;56860;51.144;16.954;2023-12-20T01:50:00;5.3;59.7
69634;DHT22;56860;51.144;16.954;2023-12-20T01:51:00;5.2;59.9
69634;DHT22;56860;51.144;16.954;2023-12-20T01:52:00;5.2;60.2
69634;DHT22;56860;51.144;16.954;2023-12-20T01:53:00;5.1;60.3
69634;DHT22;56860;51.144;16.954;2023-12-20T01:54:00;5.1;60.4
69634;DHT22;56860;51.144;16.954;2023-12-20T01:55:00;5.2;60.6
69634;DHT22;56860;51.144;16.954;2023-12-20T01:56:00;5.2;60.3
69634;DHT22;56860;51.144;16.954;2023-12-20T01:57:00;5.2;60.0
69634;DHT22;56860;51.144;16.954;2023-12-20T01:58:00;5.3;60.0
69634;DHT22;56860;51.144;16.954;2023-12-20T01:59:00;5.3;60.0
69634;DHT22;56860;51.144;16.954;2023-12-20T02:00:00;5.2;59.5
69634;DHT22;56860;51.144;16.954;2023-12-20T02:01:00;5.2;59.6
69634;DHT22;56860;51.144;16.954;2023-12-20T02:02:00;5.2;59.5
69634;DHT22;56860;51.144;16.954;2023-12-20T02:03:00;5.2;59.7
69634;DHT22;56860;51.144;16.954;2023-12-20T02:04:00;5.2;59.6
69634;DHT22;56860;51.144;16.954;2023-12-20T02:05:00;5.2;59.4
69634;DHT22;56860;51.144;16.954;2023-12-20T02:06:00;5.2;59.3
69634;DHT22;56860;51.144;16.954;2023-12-20T02:07:00;5.2;59.3
69634;DHT22;56860;51.144;16.954;2023-12-20T02:08:00;5.2;59.3
69634;DHT22;56860;51.144;16.954;2023-12-20T02:09:00;5.2;59.4
69634;DHT22;56860;51.144;16.954;2023-12-20T02:10:00;5.3;58.6
69634;DHT22;56860;51.144;16.954;2023-12-20T02:11:00;5.3;58.9
69634;DHT22;56860;51.144;16.954;2023-12-20T02:12:01;5.2;58.7
69634;DHT22;56860;51.144;16.954;2023-12-20T02:13:00;5.2;58.7
69634;DHT22;56860;51.144;16.954;2023-12-20T02:14:00;5.3;58.9
69634;DHT22;56860;51.144;16.954;2023-12-20T02:15:00;5.3;58.7
69634;DHT22;56860;51.144;16.954;2023-12-20T02:16:00;5.2;58.1
69634;DHT22;56860;51.144;16.954;2023-12-20T02:17:00;5.2;58.5
69634;DHT22;56860;51.144;16.954;2023-12-20T02:18:00;5.2;58.7
69634;DHT22;56860;51.144;16.954;2023-12-20T02:19:00;5.2;58.8
69634;DHT22;56860;51.144;16.954;2023-12-20T02:20:00;5.2;58.6
69634;DHT22;56860;51.144;16.954;2023-12-20T02:21:00;5.2;58.6
69634;DHT22;56860;51.144;16.954;2023-12-20T02:22:15;5.2;58.3
69634;DHT22;56860;51.144;16.954;2023-12-20T02:23:00;5.2;58.3
69634;DHT22;56860;51.144;16.954;2023-12-20T02:24:00;5.3;58.4
69634;DHT22;56860;51.144;16.954;2023-12-20T02:25:00;5.3;58.3
69634;DHT22;56860;51.144;16.954;2023-12-20T02:26:00;5.4;58.1
69634;DHT22;56860;51.144;16.954;2023-12-20T02:27:00;5.4;57.7
69634;DHT22;56860;51.144;16.954;2023-12-20T02:28:00;5.5;57.4
69634;DHT22;56860;51.144;16.954;2023-12-20T02:29:00;5.5;57.5
69634;DHT22;56860;51.144;16.954;2023-12-20T02:30:00;5.5;56.9
69634;DHT22;56860;51.144;16.954;2023-12-20T02:31:00;5.5;57.2
69634;DHT22;56860;51.144;16.954;2023-12-20T02:32:00;5.6;57.2
69634;DHT22;56860;51.144;16.954;2023-12-20T02:33:00;5.7;57.0
69634;DHT22;56860;51.144;16.954;2023-12-20T02:36:00;5.8;56.2
69634;DHT22;56860;51.144;16.954;2023-12-20T02:37:00;5.9;55.9
69634;DHT22;56860;51.144;16.954;2023-12-20T02:38:00;5.8;55.6
69634;DHT22;56860;51.144;16.954;2023-12-20T02:39:00;5.8;55.7
69634;DHT22;56860;51.144;16.954;2023-12-20T02:40:00;5.8;55.9
69634;DHT22;56860;51.144;16.954;2023-12-20T02:41:00;5.9;55.8
69634;DHT22;56860;51.144;16.954;2023-12-20T02:42:00;5.7;55.5
69634;DHT22;56860;51.144;16.954;2023-12-20T02:43:00;5.6;55.6
69634;DHT22;56860;51.144;16.954;2023-12-20T02:44:00;unavailable;unavailable
69634;DHT22;56860;51.144;16.954;2023-12-20T02:45:00;5.5;56.1
69634;DHT22;56860;51.144;16.954;2023-12-20T02:46:01;5.5;56.4
69634;DHT22;56860;51.144;16.954;2023-12-20T02:47:00;5.5;56.4
69634;DHT22;56860;51.144;16.954;2023-12-20T02:48:00;5.5;56.4
69634;DHT22;56860;51.144;16.954;2023-12-20T02:49:00;5.6;56.3
69634;DHT22;56860;51.144;16.954;2023-12-20T02:50:00;5.6;56.2
69634;DHT22;56860;51.144;16.954;2023-12-20T02:51:00;5.6;55.9
69634;DHT22;56860;51.144;16.954;2023-12-20T02:52:00;5.5;55.9
69634;DHT22;56860;51.144;16.954;2023-12-20T02:53:00;5.5;56.1
69634;DHT22;56860;51.144;16.954;2023-12-20T02:54:00;5.5;56.2
69634;DHT22;56860;51.144;16.954;2023-12-20T02:55:00;5.7;56.3
69634;DHT22;56860;51.144;16.954;2023-12-20T02:56:00;5.8;55.9
69634;DHT22;56860;51.144;16.954;2023-12-20T02:57:01;unavailable;unavailable
69634;DHT22;56860;51.144;16.954;2023-12-20T02:58:00;5.8;55.6
69634;DHT22;56860;51.144;16.954;2023-12-20T02:59:00;5.9;55.6
69634;DHT22;56860;51.144;16.954;2023-12-20T03:00:00;5.9;55.1
69634;DHT22;56860;51.144;16.954;2023-12-20T03:01:00;5.9;55.1
69634;DHT22;56860;51.144;16.954;2023-12-20T03:02:00;6.0;55.0
69634;DHT22;56860;51.144;16.954;2023-12-20T03:03:00;6.0;54.7
69634;DHT22;56860;51.144;16.954;2023-12-20T03:04:00;6.1;54.6
69634;DHT22;56860;51.144;16.954;2023-12-20T03:05:00;6.1;54.4
69634;DHT22;56860;51.144;16.954;2023-12-20T03:06:00;6.1;54.3
69634;DHT22;56860;51.144;16.954;2023-12-20T03:07:00;6.1;54.0
69634;DHT22;56860;51.144;16.954;2023-12-20T03:08:00;6.0;53.7
69634;DHT22;56860;51.144;16.954;2023-12-20T03:09:00;5.9;54.0
69634;DHT22;56860;51.144;16.954;2023-12-20T03:10:00;5.9;54.3
69634;DHT22;56860;51.144;16.954;2023-12-20T03:11:00;5.9;54.4
69634;DHT22;56860;51.144;16.954;2023-12-20T03:12:00;5.9;54.6
69634;DHT22;56860;51.144;16.954;2023-12-20T03:13:00;5.9;54.6
69634;DHT22;56860;51.144;16.954;2023-12-20T03:14:00;5.8;54.5
69634;DHT22;56860;51.144;16.954;2023-12-20T03:15:00;5.8;54.6
69634;DHT22;56860;51.144;16.954;2023-12-20T03:16:00;5.7;54.4
69634;DHT22;56860;51.144;16.954;2023-12-20T03:17:00;5.7;54.8
69634;DHT22;56860;51.144;16.954;2023-12-20T03:18:00;5.6;55.2
69634;DHT22;56860;51.144;16.954;2023-12-20T03:19:00;5.6;55.3
69634;DHT22;56860;51.144;16.954;2023-12-20T03:20:00;5.6;55.3
69634;DHT22;56860;51.144;16.954;2023-12-20T03:21:00;5.6;55.4
69634;DHT22;56860;51.144;16.954;2023-12-20T03:22:00;5.5;55.3
69634;DHT22;56860;51.144;16.954;2023-12-20T03:23:00;5.5;55.4
69634;DHT22;56860;51.144;16.954;2023-12-20T03:24:00;5.6;55.6
69634;DHT22;56860;51.144;16.954;2023-12-20T03:25:00;5.5;55.5
69634;DHT22;56860;51.144;16.954;2023-12-20T03:26:00;5.5;55.4
69634;DHT22;56860;51.144;16.954;2023-12-20T03:27:00;5.5;55.3
69634;DHT22;56860;51.144;16.954;2023-12-20T03:28:00;5.5;55.2
69634;DHT22;56860;51.144;16.954;2023-12-20T03:29:00;5.3;55.6
69634;DHT22;56860;51.144;16.954;2023-12-20T03:30:00;5.2;55.9
69634;DHT22;56860;51.144;16.954;2023-12-20T03:31:00;5.1;56.1
69634;DHT22;56860;51.144;16.954;2023-12-20T03:32:00;5.0;56.3
69634;DHT22;56860;51.144;16.954;2023-12-20T03:33:00;5.0;56.6
69634;DHT22;56860;51.144;16.954;2023-12-20T03:34:00;5.0;56.7
69634;DHT22;56860;51.144;16.954;2023-12-20T03:35:00;5.0;56.8
69634;DHT22;56860;51.144;16.954;2023-12-20T03:36:00;5.0;56.5
69634;DHT22;56860;51.144;16.954;2023-12-20T03:37:00;4.8;56.5
69634;DHT22;56860;51.144;16.954;2023-12-20T03:38:00;4.7;57.1
69634;DHT22;56860;51.144;16.954;2023-12-20T03:39:00;4.6;57.7
69634;DHT22;56860;51.144;16.954;2023-12-20T03:40:00;4.5;58.1
69634;DHT22;56860;51.144;16.954;2023-12-20T03:41:00;4.5;58.2
69634;DHT22;56860;51.144;16.954;2023-12-20T03:42:00;4.5;58.4
69634;DHT22;56860;51.144;16.954;2023-12-20T03:43:00;4.5;58.3
69634;DHT22;56860;51.144;16.954;2023-12-20T03:44:00;4.5;58.4
69634;DHT22;56860;51.144;16.954;2023-12-20T03:45:00;4.5;58.4
69634;DHT22;56860;51.144;16.954;2023-12-20T03:46:00;4.5;58.5
69634;DHT22;56860;51.144;16.954;2023-12-20T03:47:00;4.5;58.5
69634;DHT22;56860;51.144;16.954;2023-12-20T03:48:00;4.4;58.4
69634;DHT22;56860;51.144;16.954;2023-12-20T03:49:00;4.4;58.8
69634;DHT22;56860;51.144;16.954;2023-12-20T03:50:00;4.4;58.9
69634;DHT22;56860;51.144;16.954;2023-12-20T03:51:00;4.3;58.7
69634;DHT22;56860;51.144;16.954;2023-12-20T03:52:00;4.3;58.8
69634;DHT22;56860;51.144;16.954;2023-12-20T03:53:00;4.3;59.1
69634;DHT22;56860;51.144;16.954;2023-12-20T03:54:00;4.3;59.4
69634;DHT22;56860;51.144;16.954;2023-12-20T03:55:00;4.3;59.4
69634;DHT22;56860;51.144;16.954;2023-12-20T03:56:00;4.3;59.5
69634;DHT22;56860;51.144;16.954;2023-12-20T03:57:00;4.3;59.4
69634;DHT22;56860;51.144;16.954;2023-12-20T03:58:00;4.3;59.3
69634;DHT22;56860;51.144;16.954;2023-12-20T03:59:00;4.3;59.1
69634;DHT22;56860;51.144;16.954;2023-12-20T04:00:00;4.3;59.0
69634;DHT22;56860;51.144;16.954;2023-12-20T04:01:00;4.2;59.2
69634;DHT22;56860;51.144;16.954;2023-12-20T04:02:00;4.2;59.4
69634;DHT22;56860;51.144;16.954;2023-12-20T04:03:00;4.2;59.4
69634;DHT22;56860;51.144;16.954;2023-12-20T04:04:00;4.1;59.4
69634;DHT22;56860;51.144;16.954;2023-12-20T04:05:00;4.1;59.5
69634;DHT22;56860;51.144;16.954;2023-12-20T04:06:00;4.1;59.7
69634;DHT22;56860;51.144;16.954;2023-12-20T04:07:00;4.1;59.9
69634;DHT22;56860;51.144;16.954;2023-12-20T04:08:01;4.2;60.0
69634;DHT22;56860;51.144;16.954;2023-12-20T04:09:00;4.2;60.0
69634;DHT22;56860;51.144;16.954;2023-12-20T04:10:00;4.3;59.9
69634;DHT22;56860;51.144;16.954;2023-12-20T04:11:00;4.3;59.7
69634;DHT22;56860;51.144;16.954;2023-12-20T04:12:00;4.3;59.4
69634;DHT22;56860;51.144;16.954;2023-12-20T04:13:00;4.3;59.2
69634;DHT22;56860;51.144;16.954;2023-12-20T04:14:00;4.3;59.3
69634;DHT22;56860;51.144;16.954;2023-12-20T04:15:00;4.2;59.5
69634;DHT22;56860;51.144;16.954;2023-12-20T04:16:00;4.2;59.6
69634;DHT22;56860;51.144;16.954;2023-12-20T04:17:00;4.2;59.8
69634;DHT22;56860;51.144;16.954;2023-12-20T04:18:00;4.3;59.8
69634;DHT22;56860;51.144;16.954;2023-12-20T04:19:00;4.4;59.6
69634;DHT22;56860;51.144;16.954;2023-12-20T04:20:00;4.4;59.4
69634;DHT22;56860;51.144;16.954;2023-12-20T04:21:00;4.3;59.2
69634;DHT22;56860;51.144;16.954;2023-12-20T04:22:01;4.2;59.4
69634;DHT22;56860;51.144;16.954;2023-12-20T04:23:00;4.2;59.6
69634;DHT22;56860;51.144;16.954;2023-12-20T04:24:00;4.2;59.5
69634;DHT22;56860;51.144;16.954;2023-12-20T04:25:00;4.2;59.5
69634;DHT22;56860;51.144;16.954;2023-12-20T04:26:00;4.1;59.6
69634;DHT22;56860;51.144;16.954;2023-12-20T04:27:00;4.1;59.7
69634;DHT22;56860;51.144;16.954;2023-12-20T04:28:00;4.2;59.9
69634;DHT22;56860;51.144;16.954;2023-12-20T04:29:00;4.3;60.0
69634;DHT22;56860;51.144;16.954;2023-12-20T04:30:00;4.3;59.9
69634;DHT22;56860;51.144;16.954;2023-12-20T04:31:00;4.3;59.7
69634;DHT22;56860;51.144;16.954;2023-12-20T04:32:00;4.4;59.8
69634;DHT22;56860;51.144;16.954;2023-12-20T04:33:00;4.5;59.7
69634;DHT22;56860;51.144;16.954;2023-12-20T04:34:00;4.5;59.5
69634;DHT22;56860;51.144;16.954;2023-12-20T04:35:00;4.5;59.4
69634;DHT22;56860;51.144;16.954;2023-12-20T04:36:00;4.5;58.9
69634;DHT22;56860;51.144;16.954;2023-12-20T04:37:01;4.6;58.8
69634;DHT22;56860;51.144;16.954;2023-12-20T04:38:00;4.6;58.8
69634;DHT22;56860;51.144;16.954;2023-12-20T04:39:00;4.6;58.7
69634;DHT22;56860;51.144;16.954;2023-12-20T04:40:00;4.5;58.5
69634;DHT22;56860;51.144;16.954;2023-12-20T04:41:00;4.5;58.5
69634;DHT22;56860;51.144;16.954;2023-12-20T04:42:00;4.4;58.6
69634;DHT22;56860;51.144;16.954;2023-12-20T04:43:01;4.3;59.2
69634;DHT22;56860;51.144;16.954;2023-12-20T04:44:01;4.4;59.5
69634;DHT22;56860;51.144;16.954;2023-12-20T04:45:00;4.5;59.5
69634;DHT22;56860;51.144;16.954;2023-12-20T04:46:00;4.3;58.7
69634;DHT22;56860;51.144;16.954;2023-12-20T04:47:00;4.2;59.0
69634;DHT22;56860;51.144;16.954;2023-12-20T04:48:01;4.2;59.5
69634;DHT22;56860;51.144;16.954;2023-12-20T04:49:01;4.1;59.6
69634;DHT22;56860;51.144;16.954;2023-12-20T04:50:00;4.1;59.5
69634;DHT22;56860;51.144;16.954;2023-12-20T04:51:01;4.1;59.8
69634;DHT22;56860;51.144;16.954;2023-12-20T04:52:00;4.1;60.0
69634;DHT22;56860;51.144;16.954;2023-12-20T04:53:00;4.1;60.1
69634;DHT22;56860;51.144;16.954;2023-12-20T04:54:01;4.1;60.3
69634;DHT22;56860;51.144;16.954;2023-12-20T04:55:01;4.1;60.1
69634;DHT22;56860;51.144;16.954;2023-12-20T04:56:01;4.1;60.1
69634;DHT22;56860;51.144;16.954;2023-12-20T04:57:01;4.0;59.6
69634;DHT22;56860;51.144;16.954;2023-12-20T04:58:01;4.0;59.9
69634;DHT22;56860;51.144;16.954;2023-12-20T04:59:01;3.9;59.9
69634;DHT22;56860;51.144;16.954;2023-12-20T05:00:01;3.9;60.4
69634;DHT22;56860;51.144;16.954;2023-12-20T05:01:01;3.9;60.5
69634;DHT22;56860;51.144;16.954;2023-12-20T05:02:01;4.0;60.7
69634;DHT22;56860;51.144;16.954;2023-12-20T05:03:01;4.0;60.5
69634;DHT22;56860;51.144;16.954;2023-12-20T05:04:01;4.0;60.3
69634;DHT22;56860;51.144;16.954;2023-12-20T05:05:01;4.1;60.3
69634;DHT22;56860;51.144;16.954;2023-12-20T05:06:01;4.1;59.5
69634;DHT22;56860;51.144;16.954;2023-12-20T05:07:01;4.1;59.7
69634;DHT22;56860;51.144;16.954;2023-12-20T05:08:01;4.0;59.6
69634;DHT22;56860;51.144;16.954;2023-12-20T05:09:01;4.1;59.8
69634;DHT22;56860;51.144;16.954;2023-12-20T05:10:01;4.1;59.8
69634;DHT22;56860;51.144;16.954;2023-12-20T05:11:01;4.1;59.8
69634;DHT22;56860;51.144;16.954;2023-12-20T05:12:01;4.1;60.0
69634;DHT22;56860;51.144;16.954;2023-12-20T05:13:01;4.1;60.0
69634;DHT22;56860;51.144;16.954;2023-12-20T05:14:01;4.1;59.8
69634;DHT22;56860;51.144;16.954;2023-12-20T05:15:01;4.1;59.7
69634;DHT22;56860;51.144;16.954;2023-12-20T05:16:01;4.2;59.7
69634;DHT22;56860;51.144;16.954;2023-12-20T05:17:01;4.2;59.5
69634;DHT22;56860;51.144;16.954;2023-12-20T05:18:01;4.1;59.2
69634;DHT22;56860;51.144;16.954;2023-12-20T05:19:01;4.0;59.4
69634;DHT22;56860;51.144;16.954;2023-12-20T05:20:01;3.9;59.8
69634;DHT22;56860;51.144;16.954;2023-12-20T05:21:01;4.0;60.2
69634;DHT22;56860;51.144;16.954;2023-12-20T05:22:01;4.0;60.3
69634;DHT22;56860;51.144;16.954;2023-12-20T05:23:03;4.0;60.0
69634;DHT22;56860;51.144;16.954;2023-12-20T05:24:01;4.0;60.0
69634;DHT22;56860;51.144;16.954;2023-12-20T05:25:01;4.0;59.7
69634;DHT22;56860;51.144;16.954;2023-12-20T05:26:01;4.0;59.9
69634;DHT22;56860;51.144;16.954;2023-12-20T05:27:01;4.0;59.9
69634;DHT22;56860;51.144;16.954;2023-12-20T05:28:01;4.1;60.0
69634;DHT22;56860;51.144;16.954;2023-12-20T05:29:01;4.1;60.0
69634;DHT22;56860;51.144;16.954;2023-12-20T05:30:01;4.1;59.9
69634;DHT22;56860;51.144;16.954;2023-12-20T05:31:01;4.1;60.0
69634;DHT22;56860;51.144;16.954;2023-12-20T05:32:01;4.2;60.0
69634;DHT22;56860;51.144;16.954;2023-12-20T05:33:01;4.2;59.8
69634;DHT22;56860;51.144;16.954;2023-12-20T05:34:01;4.3;59.6
69634;DHT22;56860;51.144;16.954;2023-12-20T05:35:01;4.3;59.5
69634;DHT22;56860;51.144;16.954;2023-12-20T05:36:01;4.4;59.4
69634;DHT22;56860;51.144;16.954;2023-12-20T05:37:01;4.4;59.2
69634;DHT22;56860;51.144;16.954;2023-12-20T05:38:01;4.4;59.1
69634;DHT22;56860;51.144;16.954;2023-12-20T05:39:01;4.4;58.9
69634;DHT22;56860;51.144;16.954;2023-12-20T05:40:01;4.3;58.8
69634;DHT22;56860;51.144;16.954;2023-12-20T05:41:01;4.2;59.1
69634;DHT22;56860;51.144;16.954;2023-12-20T05:42:01;4.1;59.5
69634;DHT22;56860;51.144;16.954;2023-12-20T05:43:01;4.1;59.5
69634;DHT22;56860;51.144;16.954;2023-12-20T05:44:01;3.9;59.9
69634;DHT22;56860;51.144;16.954;2023-12-20T05:45:01;3.8;60.3
69634;DHT22;56860;51.144;16.954;2023-12-20T05:46:01;3.8;60.8
69634;DHT22;56860;51.144;16.954;2023-12-20T05:47:01;3.7;61.0
69634;DHT22;56860;51.144;16.954;2023-12-20T05:48:01;3.7;61.0
69634;DHT22;56860;51.144;16.954;2023-12-20T05:49:01;3.7;61.2
69634;DHT22;56860;51.144;16.954;2023-12-20T05:50:01;3.6;61.4
69634;DHT22;56860;51.144;16.954;2023-12-20T05:51:01;3.7;61.7
69634;DHT22;56860;51.144;16.954;2023-12-20T05:52:02;3.7;61.6
69634;DHT22;56860;51.144;16.954;2023-12-20T05:53:02;3.6;61.5
69634;DHT22;56860;51.144;16.954;2023-12-20T05:54:02;3.6;61.5
69634;DHT22;56860;51.144;16.954;2023-12-20T05:55:02;3.6;61.6
69634;DHT22;56860;51.144;16.954;2023-12-20T05:56:02;3.6;61.9
69634;DHT22;56860;51.144;16.954;2023-12-20T05:57:02;3.7;61.9
69634;DHT22;56860;51.144;16.954;2023-12-20T05:58:02;3.7;61.8
69634;DHT22;56860;51.144;16.954;2023-12-20T05:59:02;3.6;61.8
69634;DHT22;56860;51.144;16.954;2023-12-20T06:00:03;3.6;61.8
69634;DHT22;56860;51.144;16.954;2023-12-20T06:01:03;3.5;61.8
69634;DHT22;56860;51.144;16.954;2023-12-20T06:02:03;3.5;62.2
69634;DHT22;56860;51.144;16.954;2023-12-20T06:03:02;3.4;62.4
69634;DHT22;56860;51.144;16.954;2023-12-20T06:04:02;3.4;62.6
69634;DHT22;56860;51.144;16.954;2023-12-20T06:05:03;3.4;63.0
69634;DHT22;56860;51.144;16.954;2023-12-20T06:06:04;3.3;63.2
69634;DHT22;56860;51.144;16.954;2023-12-20T06:07:02;3.3;63.2
69634;DHT22;56860;51.144;16.954;2023-12-20T06:08:02;3.3;63.4
69634;DHT22;56860;51.144;16.954;2023-12-20T06:09:02;3.4;63.6
69634;DHT22;56860;51.144;16.954;2023-12-20T06:10:02;3.4;63.6
69634;DHT22;56860;51.144;16.954;2023-12-20T06:11:02;3.4;63.5
69634;DHT22;56860;51.144;16.954;2023-12-20T06:12:02;3.4;63.5
69634;DHT22;56860;51.144;16.954;2023-12-20T06:13:02;3.4;63.6
69634;DHT22;56860;51.144;16.954;2023-12-20T06:14:02;3.4;63.6
69634;DHT22;56860;51.144;16.954;2023-12-20T06:15:02;3.4;63.8
69634;DHT22;56860;51.144;16.954;2023-12-20T06:16:03;3.4;63.6
69634;DHT22;56860;51.144;16.954;2023-12-20T06:17:02;3.4;63.4
69634;DHT22;56860;51.144;16.954;2023-12-20T06:18:03;3.3;63.5
69634;DHT22;56860;51.144;16.954;2023-12-20T06:19:02;3.3;63.6
69634;DHT22;56860;51.144;16.954;2023-12-20T06:20:02;3.4;63.7
69634;DHT22;56860;51.144;16.954;2023-12-20T06:21:02;3.3;63.6
69634;DHT22;56860;51.144;16.954;2023-12-20T06:22:03;3.4;63.6
69634;DHT22;56860;51.144;16.954;2023-12-20T06:23:02;3.4;63.6
69634;DHT22;56860;51.144;16.954;2023-12-20T06:24:02;3.4;63.5
69634;DHT22;56860;51.144;16.954;2023-12-20T06:25:02;3.4;63.5
69634;DHT22;56860;51.144;16.954;2023-12-20T06:26:02;3.4;63.4
69634;DHT22;56860;51.144;16.954;2023-12-20T06:27:02;3.4;63.4
69634;DHT22;56860;51.144;16.954;2023-12-20T06:28:02;3.4;63.2
69634;DHT22;56860;51.144;16.954;2023-12-20T06:29:02;3.4;62.9
69634;DHT22;56860;51.144;16.954;2023-12-20T06:30:02;3.4;62.9
69634;DHT22;56860;51.144;16.954;2023-12-20T06:31:02;3.3;62.9
69634;DHT22;56860;51.144;16.954;2023-12-20T06:32:02;3.3;63.0
69634;DHT22;56860;51.144;16.954;2023-12-20T06:33:02;3.3;63.1